sensor_id;sensor_type;location;lat;lon;timestamp;temperature;humidity
25951;DHT22;13748;52.240;6.002;2022-07-21T00:00:58;21.90;99.90
25951;DHT22;13748;52.240;6.002;2022-07-21T00:03:25;21.80;99.90
25951;DHT22;13748;52.240;6.002;2022-07-21T00:05:53;21.70;99.90
25951;DHT22;13748;52.240;6.002;2022-07-21T00:08:21;21.70;99.90
25951;DHT22;13748;52.240;6.002;2022-07-21T00:10:48;21.80;99.90
25951;DHT22;13748;52.240;6.002;2022-07-21T00:13:16;21.60;99.90
25951;DHT22;13748;52.240;6.002;2022-07-21T00:15:43;21.40;99.90
25951;DHT22;13748;52.240;6.002;2022-07-21T00:18:13;21.40;99.90
25951;DHT22;13748;52.240;6.002;2022-07-21T00:20:41;21.40;99.90
25951;DHT22;13748;52.240;6.002;2022-07-21T00:23:11;21.30;99.90
25951;DHT22;13748;52.240;6.002;2022-07-21T00:25:38;21.20;99.90
25951;DHT22;13748;52.240;6.002;2022-07-21T00:28:06;21.20;99.90
25951;DHT22;13748;52.240;6.002;2022-07-21T00:30:35;21.20;99.90
25951;DHT22;13748;52.240;6.002;2022-07-21T00:33:02;21.20;99.90
25951;DHT22;13748;52.240;6.002;2022-07-21T00:35:49;21.20;99.90
25951;DHT22;13748;52.240;6.002;2022-07-21T00:38:22;21.10;99.90
25951;DHT22;13748;52.240;6.002;2022-07-21T00:40:49;21.00;99.90
25951;DHT22;13748;52.240;6.002;2022-07-21T00:43:17;20.90;99.90
25951;DHT22;13748;52.240;6.002;2022-07-21T00:45:44;20.90;99.90
25951;DHT22;13748;52.240;6.002;2022-07-21T00:48:15;20.80;99.90
25951;DHT22;13748;52.240;6.002;2022-07-21T00:51:01;20.80;99.90
25951;DHT22;13748;52.240;6.002;2022-07-21T00:53:35;20.70;99.90
25951;DHT22;13748;52.240;6.002;2022-07-21T00:56:03;20.70;99.90
25951;DHT22;13748;52.240;6.002;2022-07-21T00:58:32;20.60;99.90
25951;DHT22;13748;52.240;6.002;2022-07-21T01:00:59;20.60;99.90
25951;DHT22;13748;52.240;6.002;2022-07-21T01:03:30;20.50;99.90
25951;DHT22;13748;52.240;6.002;2022-07-21T01:05:58;20.50;99.90
25951;DHT22;13748;52.240;6.002;2022-07-21T01:08:26;20.50;99.90
25951;DHT22;13748;52.240;6.002;2022-07-21T01:10:55;20.50;99.90
25951;DHT22;13748;52.240;6.002;2022-07-21T01:13:22;20.50;99.90
25951;DHT22;13748;52.240;6.002;2022-07-21T01:15:52;20.60;99.90
25951;DHT22;13748;52.240;6.002;2022-07-21T01:18:21;20.50;99.90
25951;DHT22;13748;52.240;6.002;2022-07-21T01:20:54;20.60;99.90
25951;DHT22;13748;52.240;6.002;2022-07-21T01:23:21;20.60;99.90
25951;DHT22;13748;52.240;6.002;2022-07-21T01:25:51;20.60;99.90
25951;DHT22;13748;52.240;6.002;2022-07-21T01:28:18;20.60;99.90
25951;DHT22;13748;52.240;6.002;2022-07-21T01:30:46;20.60;99.90
25951;DHT22;13748;52.240;6.002;2022-07-21T01:33:13;20.60;99.90
25951;DHT22;13748;52.240;6.002;2022-07-21T01:35:40;20.60;99.90
25951;DHT22;13748;52.240;6.002;2022-07-21T01:38:10;20.50;99.90
25951;DHT22;13748;52.240;6.002;2022-07-21T01:40:59;20.50;99.90
25951;DHT22;13748;52.240;6.002;2022-07-21T01:43:45;20.60;99.90
25951;DHT22;13748;52.240;6.002;2022-07-21T01:46:13;20.60;99.90
25951;DHT22;13748;52.240;6.002;2022-07-21T01:48:44;20.60;99.90
25951;DHT22;13748;52.240;6.002;2022-07-21T01:51:12;20.60;99.90
25951;DHT22;13748;52.240;6.002;2022-07-21T01:53:40;20.50;99.90
25951;DHT22;13748;52.240;6.002;2022-07-21T01:56:07;20.50;99.90
25951;DHT22;13748;52.240;6.002;2022-07-21T01:58:34;20.50;99.90
25951;DHT22;13748;52.240;6.002;2022-07-21T02:01:02;20.50;99.90
25951;DHT22;13748;52.240;6.002;2022-07-21T02:03:31;20.50;99.90
25951;DHT22;13748;52.240;6.002;2022-07-21T02:06:05;20.50;99.90
25951;DHT22;13748;52.240;6.002;2022-07-21T02:08:34;20.50;99.90
25951;DHT22;13748;52.240;6.002;2022-07-21T02:11:02;20.50;99.90
25951;DHT22;13748;52.240;6.002;2022-07-21T02:13:35;20.50;99.90
25951;DHT22;13748;52.240;6.002;2022-07-21T02:16:06;20.40;99.90
25951;DHT22;13748;52.240;6.002;2022-07-21T02:18:33;20.40;99.90
25951;DHT22;13748;52.240;6.002;2022-07-21T02:21:00;20.40;99.90
25951;DHT22;13748;52.240;6.002;2022-07-21T02:23:28;20.40;99.90
25951;DHT22;13748;52.240;6.002;2022-07-21T02:25:55;20.40;99.90
25951;DHT22;13748;52.240;6.002;2022-07-21T02:28:24;20.40;99.90
25951;DHT22;13748;52.240;6.002;2022-07-21T02:30:52;20.50;99.90
25951;DHT22;13748;52.240;6.002;2022-07-21T02:33:20;20.50;99.90
25951;DHT22;13748;52.240;6.002;2022-07-21T02:35:47;20.50;99.90
25951;DHT22;13748;52.240;6.002;2022-07-21T02:38:15;20.50;99.90
25951;DHT22;13748;52.240;6.002;2022-07-21T02:40:48;20.50;99.90
25951;DHT22;13748;52.240;6.002;2022-07-21T02:43:22;20.50;99.90
25951;DHT22;13748;52.240;6.002;2022-07-21T02:45:49;20.50;99.90
25951;DHT22;13748;52.240;6.002;2022-07-21T02:48:17;20.50;99.90
25951;DHT22;13748;52.240;6.002;2022-07-21T02:50:44;20.40;99.90
25951;DHT22;13748;52.240;6.002;2022-07-21T02:53:21;20.40;99.90
25951;DHT22;13748;52.240;6.002;2022-07-21T02:55:51;20.40;99.90
25951;DHT22;13748;52.240;6.002;2022-07-21T02:58:24;20.40;99.90
25951;DHT22;13748;52.240;6.002;2022-07-21T03:03:24;20.40;99.90
25951;DHT22;13748;52.240;6.002;2022-07-21T03:05:51;20.30;99.90
25951;DHT22;13748;52.240;6.002;2022-07-21T03:08:18;20.30;99.90
25951;DHT22;13748;52.240;6.002;2022-07-21T03:10:46;20.30;99.90
25951;DHT22;13748;52.240;6.002;2022-07-21T03:13:16;20.30;99.90
25951;DHT22;13748;52.240;6.002;2022-07-21T03:15:46;20.20;99.90
25951;DHT22;13748;52.240;6.002;2022-07-21T03:18:13;20.20;99.90
25951;DHT22;13748;52.240;6.002;2022-07-21T03:20:43;20.20;99.90
25951;DHT22;13748;52.240;6.002;2022-07-21T03:23:10;20.10;99.90
25951;DHT22;13748;52.240;6.002;2022-07-21T03:25:37;20.20;99.90
25951;DHT22;13748;52.240;6.002;2022-07-21T03:28:04;20.10;99.90
25951;DHT22;13748;52.240;6.002;2022-07-21T03:30:34;20.20;99.90
25951;DHT22;13748;52.240;6.002;2022-07-21T03:33:04;20.20;99.90
25951;DHT22;13748;52.240;6.002;2022-07-21T03:35:31;20.20;99.90
25951;DHT22;13748;52.240;6.002;2022-07-21T03:38:02;20.20;99.90
25951;DHT22;13748;52.240;6.002;2022-07-21T03:40:31;20.20;99.90
25951;DHT22;13748;52.240;6.002;2022-07-21T03:43:03;20.10;99.90
25951;DHT22;13748;52.240;6.002;2022-07-21T03:45:32;20.10;99.90
25951;DHT22;13748;52.240;6.002;2022-07-21T03:48:00;20.10;99.90
25951;DHT22;13748;52.240;6.002;2022-07-21T03:50:29;20.10;99.90
25951;DHT22;13748;52.240;6.002;2022-07-21T03:52:59;20.00;99.90
25951;DHT22;13748;52.240;6.002;2022-07-21T03:55:27;19.90;99.90
25951;DHT22;13748;52.240;6.002;2022-07-21T03:57:56;20.00;99.90
25951;DHT22;13748;52.240;6.002;2022-07-21T04:00:31;20.00;99.90
25951;DHT22;13748;52.240;6.002;2022-07-21T04:02:59;20.00;99.90
25951;DHT22;13748;52.240;6.002;2022-07-21T04:05:28;20.00;99.90
25951;DHT22;13748;52.240;6.002;2022-07-21T04:08:03;20.00;99.90
25951;DHT22;13748;52.240;6.002;2022-07-21T04:10:33;19.90;99.90
25951;DHT22;13748;52.240;6.002;2022-07-21T04:13:03;19.90;99.90
25951;DHT22;13748;52.240;6.002;2022-07-21T04:15:32;19.90;99.90
25951;DHT22;13748;52.240;6.002;2022-07-21T04:17:59;19.90;99.90
25951;DHT22;13748;52.240;6.002;2022-07-21T04:20:27;20.00;99.90
25951;DHT22;13748;52.240;6.002;2022-07-21T04:22:54;20.00;99.90
25951;DHT22;13748;52.240;6.002;2022-07-21T04:25:22;19.80;99.90
25951;DHT22;13748;52.240;6.002;2022-07-21T04:27:50;20.00;99.90
25951;DHT22;13748;52.240;6.002;2022-07-21T04:30:19;20.00;99.90
25951;DHT22;13748;52.240;6.002;2022-07-21T04:32:46;20.00;99.90
25951;DHT22;13748;52.240;6.002;2022-07-21T04:35:14;20.00;99.90
25951;DHT22;13748;52.240;6.002;2022-07-21T04:37:41;20.00;99.90
25951;DHT22;13748;52.240;6.002;2022-07-21T04:40:13;20.00;99.90
25951;DHT22;13748;52.240;6.002;2022-07-21T04:42:41;19.90;99.90
25951;DHT22;13748;52.240;6.002;2022-07-21T04:45:14;19.90;99.90
25951;DHT22;13748;52.240;6.002;2022-07-21T04:48:01;19.90;99.90
25951;DHT22;13748;52.240;6.002;2022-07-21T04:50:33;19.90;99.90
25951;DHT22;13748;52.240;6.002;2022-07-21T04:53:08;19.90;99.90
25951;DHT22;13748;52.240;6.002;2022-07-21T04:55:40;19.90;99.90
25951;DHT22;13748;52.240;6.002;2022-07-21T04:58:11;20.00;99.90
25951;DHT22;13748;52.240;6.002;2022-07-21T05:00:41;20.00;99.90
25951;DHT22;13748;52.240;6.002;2022-07-21T05:03:08;20.00;99.90
25951;DHT22;13748;52.240;6.002;2022-07-21T05:05:36;20.10;99.90
25951;DHT22;13748;52.240;6.002;2022-07-21T05:08:08;20.10;99.90
25951;DHT22;13748;52.240;6.002;2022-07-21T05:10:38;20.30;99.90
25951;DHT22;13748;52.240;6.002;2022-07-21T05:13:18;20.20;99.90
25951;DHT22;13748;52.240;6.002;2022-07-21T05:15:49;20.20;99.90
25951;DHT22;13748;52.240;6.002;2022-07-21T05:18:17;20.30;99.90
25951;DHT22;13748;52.240;6.002;2022-07-21T05:20:46;20.20;99.90
25951;DHT22;13748;52.240;6.002;2022-07-21T05:23:13;20.20;99.90
25951;DHT22;13748;52.240;6.002;2022-07-21T05:25:46;20.30;99.90
25951;DHT22;13748;52.240;6.002;2022-07-21T05:28:13;20.30;99.90
25951;DHT22;13748;52.240;6.002;2022-07-21T05:30:42;20.30;99.90
25951;DHT22;13748;52.240;6.002;2022-07-21T05:33:09;20.30;99.90
25951;DHT22;13748;52.240;6.002;2022-07-21T05:35:36;20.30;99.90
25951;DHT22;13748;52.240;6.002;2022-07-21T05:38:10;20.40;99.90
25951;DHT22;13748;52.240;6.002;2022-07-21T05:40:40;20.30;99.90
25951;DHT22;13748;52.240;6.002;2022-07-21T05:43:10;20.40;99.90
25951;DHT22;13748;52.240;6.002;2022-07-21T05:45:41;20.20;99.90
25951;DHT22;13748;52.240;6.002;2022-07-21T05:48:08;20.30;99.90
25951;DHT22;13748;52.240;6.002;2022-07-21T05:50:35;20.20;99.90
25951;DHT22;13748;52.240;6.002;2022-07-21T05:53:02;20.20;99.90
25951;DHT22;13748;52.240;6.002;2022-07-21T05:55:39;20.30;99.90
25951;DHT22;13748;52.240;6.002;2022-07-21T05:58:06;20.40;99.90
25951;DHT22;13748;52.240;6.002;2022-07-21T06:00:37;20.50;99.90
25951;DHT22;13748;52.240;6.002;2022-07-21T06:03:07;20.60;99.90
25951;DHT22;13748;52.240;6.002;2022-07-21T06:05:38;20.80;99.90
25951;DHT22;13748;52.240;6.002;2022-07-21T06:08:06;21.00;99.90
25951;DHT22;13748;52.240;6.002;2022-07-21T06:10:41;21.10;99.90
25951;DHT22;13748;52.240;6.002;2022-07-21T06:13:09;21.20;99.90
25951;DHT22;13748;52.240;6.002;2022-07-21T06:15:39;21.30;99.90
25951;DHT22;13748;52.240;6.002;2022-07-21T06:18:15;21.40;99.90
25951;DHT22;13748;52.240;6.002;2022-07-21T06:20:43;21.50;99.90
25951;DHT22;13748;52.240;6.002;2022-07-21T06:23:15;21.50;99.90
25951;DHT22;13748;52.240;6.002;2022-07-21T06:25:45;21.60;99.90
25951;DHT22;13748;52.240;6.002;2022-07-21T06:28:12;21.70;99.90
25951;DHT22;13748;52.240;6.002;2022-07-21T06:30:42;21.70;99.90
25951;DHT22;13748;52.240;6.002;2022-07-21T06:33:09;21.80;99.90
25951;DHT22;13748;52.240;6.002;2022-07-21T06:35:37;21.70;99.90
25951;DHT22;13748;52.240;6.002;2022-07-21T06:38:04;21.80;99.90
25951;DHT22;13748;52.240;6.002;2022-07-21T06:40:38;21.80;99.90
25951;DHT22;13748;52.240;6.002;2022-07-21T06:43:14;21.80;99.90
25951;DHT22;13748;52.240;6.002;2022-07-21T06:45:58;21.80;99.90
25951;DHT22;13748;52.240;6.002;2022-07-21T06:48:28;21.80;99.90
25951;DHT22;13748;52.240;6.002;2022-07-21T06:50:55;21.80;99.90
25951;DHT22;13748;52.240;6.002;2022-07-21T06:53:26;21.80;99.90
25951;DHT22;13748;52.240;6.002;2022-07-21T06:55:55;22.00;99.90
25951;DHT22;13748;52.240;6.002;2022-07-21T06:58:32;22.00;99.90
25951;DHT22;13748;52.240;6.002;2022-07-21T07:01:06;22.00;99.90
25951;DHT22;13748;52.240;6.002;2022-07-21T07:03:33;21.90;99.90
25951;DHT22;13748;52.240;6.002;2022-07-21T07:06:04;21.80;99.90
25951;DHT22;13748;52.240;6.002;2022-07-21T07:08:32;21.80;99.90
25951;DHT22;13748;52.240;6.002;2022-07-21T07:10:59;21.70;99.90
25951;DHT22;13748;52.240;6.002;2022-07-21T07:13:30;21.80;99.90
25951;DHT22;13748;52.240;6.002;2022-07-21T07:16:16;21.70;99.90
25951;DHT22;13748;52.240;6.002;2022-07-21T07:18:44;21.60;99.90
25951;DHT22;13748;52.240;6.002;2022-07-21T07:21:10;21.70;99.90
25951;DHT22;13748;52.240;6.002;2022-07-21T07:23:39;21.70;99.90
25951;DHT22;13748;52.240;6.002;2022-07-21T07:26:07;21.80;99.90
25951;DHT22;13748;52.240;6.002;2022-07-21T07:28:35;21.90;99.90
25951;DHT22;13748;52.240;6.002;2022-07-21T07:31:02;22.00;99.90
25951;DHT22;13748;52.240;6.002;2022-07-21T07:33:29;22.10;99.90
25951;DHT22;13748;52.240;6.002;2022-07-21T07:35:56;22.30;99.90
25951;DHT22;13748;52.240;6.002;2022-07-21T07:38:24;22.40;99.90
25951;DHT22;13748;52.240;6.002;2022-07-21T07:40:51;22.50;99.90
25951;DHT22;13748;52.240;6.002;2022-07-21T07:43:18;22.60;99.90
25951;DHT22;13748;52.240;6.002;2022-07-21T07:45:48;22.70;99.90
25951;DHT22;13748;52.240;6.002;2022-07-21T07:48:15;23.00;99.90
25951;DHT22;13748;52.240;6.002;2022-07-21T07:50:46;23.50;99.90
25951;DHT22;13748;52.240;6.002;2022-07-21T07:53:14;23.80;99.90
25951;DHT22;13748;52.240;6.002;2022-07-21T07:55:43;24.20;99.90
25951;DHT22;13748;52.240;6.002;2022-07-21T07:58:10;24.40;99.90
25951;DHT22;13748;52.240;6.002;2022-07-21T08:00:38;24.40;99.90
25951;DHT22;13748;52.240;6.002;2022-07-21T08:03:25;24.50;99.90
25951;DHT22;13748;52.240;6.002;2022-07-21T08:05:59;24.50;99.90
25951;DHT22;13748;52.240;6.002;2022-07-21T08:08:33;24.50;99.90
25951;DHT22;13748;52.240;6.002;2022-07-21T08:11:01;24.70;99.90
25951;DHT22;13748;52.240;6.002;2022-07-21T08:13:28;25.00;99.90
25951;DHT22;13748;52.240;6.002;2022-07-21T08:15:58;25.40;99.90
25951;DHT22;13748;52.240;6.002;2022-07-21T08:18:25;25.80;99.90
25951;DHT22;13748;52.240;6.002;2022-07-21T08:20:56;25.80;99.90
25951;DHT22;13748;52.240;6.002;2022-07-21T08:23:25;25.90;99.90
25951;DHT22;13748;52.240;6.002;2022-07-21T08:25:52;25.80;99.90
25951;DHT22;13748;52.240;6.002;2022-07-21T08:28:22;25.60;99.90
25951;DHT22;13748;52.240;6.002;2022-07-21T08:30:49;25.60;99.90
25951;DHT22;13748;52.240;6.002;2022-07-21T08:33:17;25.40;99.90
25951;DHT22;13748;52.240;6.002;2022-07-21T08:35:44;25.30;99.90
25951;DHT22;13748;52.240;6.002;2022-07-21T08:38:13;25.20;99.90
25951;DHT22;13748;52.240;6.002;2022-07-21T08:40:45;25.00;99.90
25951;DHT22;13748;52.240;6.002;2022-07-21T08:43:13;24.90;99.90
25951;DHT22;13748;52.240;6.002;2022-07-21T08:45:41;24.60;99.90
25951;DHT22;13748;52.240;6.002;2022-07-21T08:48:12;24.40;99.90
25951;DHT22;13748;52.240;6.002;2022-07-21T08:50:48;24.10;99.90
25951;DHT22;13748;52.240;6.002;2022-07-21T08:53:18;24.00;99.90
25951;DHT22;13748;52.240;6.002;2022-07-21T08:55:48;23.90;99.90
25951;DHT22;13748;52.240;6.002;2022-07-21T08:58:16;23.80;99.90
25951;DHT22;13748;52.240;6.002;2022-07-21T09:00:47;23.90;99.90
25951;DHT22;13748;52.240;6.002;2022-07-21T09:03:21;24.00;99.90
25951;DHT22;13748;52.240;6.002;2022-07-21T09:06:11;24.30;99.90
25951;DHT22;13748;52.240;6.002;2022-07-21T09:08:41;24.60;99.90
25951;DHT22;13748;52.240;6.002;2022-07-21T09:11:23;24.70;99.90
25951;DHT22;13748;52.240;6.002;2022-07-21T09:14:08;24.70;99.90
25951;DHT22;13748;52.240;6.002;2022-07-21T09:16:43;24.70;99.90
25951;DHT22;13748;52.240;6.002;2022-07-21T09:19:24;24.50;99.90
25951;DHT22;13748;52.240;6.002;2022-07-21T09:21:55;24.30;99.90
25951;DHT22;13748;52.240;6.002;2022-07-21T09:27:13;24.00;99.90
25951;DHT22;13748;52.240;6.002;2022-07-21T09:29:47;23.80;99.90
25951;DHT22;13748;52.240;6.002;2022-07-21T09:35:12;23.40;99.90
25951;DHT22;13748;52.240;6.002;2022-07-21T09:37:42;23.20;99.90
25951;DHT22;13748;52.240;6.002;2022-07-21T09:40:13;23.00;99.90
25951;DHT22;13748;52.240;6.002;2022-07-21T09:42:53;22.80;99.90
25951;DHT22;13748;52.240;6.002;2022-07-21T09:45:25;22.80;99.90
25951;DHT22;13748;52.240;6.002;2022-07-21T09:47:52;22.60;99.90
25951;DHT22;13748;52.240;6.002;2022-07-21T09:50:19;22.40;99.90
25951;DHT22;13748;52.240;6.002;2022-07-21T09:52:53;22.40;99.90
25951;DHT22;13748;52.240;6.002;2022-07-21T09:55:25;22.30;99.90
25951;DHT22;13748;52.240;6.002;2022-07-21T09:57:55;22.20;99.90
25951;DHT22;13748;52.240;6.002;2022-07-21T10:00:30;22.10;99.90
25951;DHT22;13748;52.240;6.002;2022-07-21T10:02:58;22.20;99.90
25951;DHT22;13748;52.240;6.002;2022-07-21T10:05:28;22.30;99.90
25951;DHT22;13748;52.240;6.002;2022-07-21T10:08:13;22.40;99.90
25951;DHT22;13748;52.240;6.002;2022-07-21T10:10:54;22.60;99.90
25951;DHT22;13748;52.240;6.002;2022-07-21T10:13:44;22.70;99.90
25951;DHT22;13748;52.240;6.002;2022-07-21T10:16:16;22.90;99.90
25951;DHT22;13748;52.240;6.002;2022-07-21T10:24:18;22.80;99.90
25951;DHT22;13748;52.240;6.002;2022-07-21T10:30:04;22.60;99.90
25951;DHT22;13748;52.240;6.002;2022-07-21T10:32:34;22.60;99.90
25951;DHT22;13748;52.240;6.002;2022-07-21T10:37:52;22.50;99.90
25951;DHT22;13748;52.240;6.002;2022-07-21T10:45:41;22.00;99.90
25951;DHT22;13748;52.240;6.002;2022-07-21T10:51:07;21.70;99.90
25951;DHT22;13748;52.240;6.002;2022-07-21T10:53:35;21.60;99.90
25951;DHT22;13748;52.240;6.002;2022-07-21T10:56:03;21.50;99.90
25951;DHT22;13748;52.240;6.002;2022-07-21T10:58:31;21.30;99.90
25951;DHT22;13748;52.240;6.002;2022-07-21T11:01:20;21.20;99.90
25951;DHT22;13748;52.240;6.002;2022-07-21T11:04:13;21.10;99.90
25951;DHT22;13748;52.240;6.002;2022-07-21T11:06:45;21.10;99.90
25951;DHT22;13748;52.240;6.002;2022-07-21T11:09:18;21.10;99.90
25951;DHT22;13748;52.240;6.002;2022-07-21T11:14:15;21.20;99.90
25951;DHT22;13748;52.240;6.002;2022-07-21T11:22:19;21.20;99.90
25951;DHT22;13748;52.240;6.002;2022-07-21T11:27:35;21.60;99.90
25951;DHT22;13748;52.240;6.002;2022-07-21T11:30:06;21.80;99.90
25951;DHT22;13748;52.240;6.002;2022-07-21T11:32:34;22.00;99.90
25951;DHT22;13748;52.240;6.002;2022-07-21T11:35:03;22.20;99.90
25951;DHT22;13748;52.240;6.002;2022-07-21T11:37:36;22.30;99.90
25951;DHT22;13748;52.240;6.002;2022-07-21T11:40:07;22.40;99.90
25951;DHT22;13748;52.240;6.002;2022-07-21T11:42:36;22.50;99.90
25951;DHT22;13748;52.240;6.002;2022-07-21T11:45:04;22.50;99.90
25951;DHT22;13748;52.240;6.002;2022-07-21T11:47:32;22.60;99.90
25951;DHT22;13748;52.240;6.002;2022-07-21T11:50:10;22.70;99.90
25951;DHT22;13748;52.240;6.002;2022-07-21T11:52:39;22.70;99.90
25951;DHT22;13748;52.240;6.002;2022-07-21T11:55:10;22.70;99.90
25951;DHT22;13748;52.240;6.002;2022-07-21T11:57:48;22.90;99.90
25951;DHT22;13748;52.240;6.002;2022-07-21T12:00:16;23.00;99.90
25951;DHT22;13748;52.240;6.002;2022-07-21T12:02:48;22.90;99.90
25951;DHT22;13748;52.240;6.002;2022-07-21T12:05:17;22.80;99.90
25951;DHT22;13748;52.240;6.002;2022-07-21T12:07:49;22.70;99.90
25951;DHT22;13748;52.240;6.002;2022-07-21T12:10:27;22.60;99.90
25951;DHT22;13748;52.240;6.002;2022-07-21T12:13:04;22.40;99.90
25951;DHT22;13748;52.240;6.002;2022-07-21T12:15:37;22.40;99.90
25951;DHT22;13748;52.240;6.002;2022-07-21T12:18:18;22.30;99.90
25951;DHT22;13748;52.240;6.002;2022-07-21T12:20:45;22.30;99.90
25951;DHT22;13748;52.240;6.002;2022-07-21T12:23:23;22.30;99.90
25951;DHT22;13748;52.240;6.002;2022-07-21T12:25:54;22.70;99.90
25951;DHT22;13748;52.240;6.002;2022-07-21T12:28:42;22.90;99.90
25951;DHT22;13748;52.240;6.002;2022-07-21T12:31:13;23.30;99.90
25951;DHT22;13748;52.240;6.002;2022-07-21T12:33:41;23.80;99.90
25951;DHT22;13748;52.240;6.002;2022-07-21T12:36:28;24.10;99.90
25951;DHT22;13748;52.240;6.002;2022-07-21T12:38:55;24.40;99.90
25951;DHT22;13748;52.240;6.002;2022-07-21T12:41:23;24.70;99.90
25951;DHT22;13748;52.240;6.002;2022-07-21T12:43:57;24.60;99.90
25951;DHT22;13748;52.240;6.002;2022-07-21T12:46:37;24.50;99.90
25951;DHT22;13748;52.240;6.002;2022-07-21T12:49:09;24.30;99.90
25951;DHT22;13748;52.240;6.002;2022-07-21T12:51:39;24.00;99.90
25951;DHT22;13748;52.240;6.002;2022-07-21T12:54:09;23.80;99.90
25951;DHT22;13748;52.240;6.002;2022-07-21T12:56:36;23.60;99.90
25951;DHT22;13748;52.240;6.002;2022-07-21T12:59:04;23.50;99.90
25951;DHT22;13748;52.240;6.002;2022-07-21T13:01:33;23.50;99.90
25951;DHT22;13748;52.240;6.002;2022-07-21T13:04:04;23.50;99.90
25951;DHT22;13748;52.240;6.002;2022-07-21T13:06:31;23.40;99.90
25951;DHT22;13748;52.240;6.002;2022-07-21T13:08:59;23.20;99.90
25951;DHT22;13748;52.240;6.002;2022-07-21T13:11:26;23.30;99.90
25951;DHT22;13748;52.240;6.002;2022-07-21T13:13:53;23.30;99.90
25951;DHT22;13748;52.240;6.002;2022-07-21T13:16:22;23.20;99.90
25951;DHT22;13748;52.240;6.002;2022-07-21T13:18:50;23.30;99.90
25951;DHT22;13748;52.240;6.002;2022-07-21T13:21:19;23.40;99.90
25951;DHT22;13748;52.240;6.002;2022-07-21T13:23:46;23.30;99.90
25951;DHT22;13748;52.240;6.002;2022-07-21T13:26:13;23.30;99.90
25951;DHT22;13748;52.240;6.002;2022-07-21T13:28:41;23.40;99.90
25951;DHT22;13748;52.240;6.002;2022-07-21T13:31:08;23.40;99.90
25951;DHT22;13748;52.240;6.002;2022-07-21T13:33:37;23.30;99.90
25951;DHT22;13748;52.240;6.002;2022-07-21T13:36:06;23.10;99.90
25951;DHT22;13748;52.240;6.002;2022-07-21T13:38:33;22.90;99.90
25951;DHT22;13748;52.240;6.002;2022-07-21T13:41:00;22.80;99.90
25951;DHT22;13748;52.240;6.002;2022-07-21T13:43:47;22.60;99.90
25951;DHT22;13748;52.240;6.002;2022-07-21T13:46:15;22.50;99.90
25951;DHT22;13748;52.240;6.002;2022-07-21T13:48:42;22.30;99.90
25951;DHT22;13748;52.240;6.002;2022-07-21T13:51:14;22.20;99.90
25951;DHT22;13748;52.240;6.002;2022-07-21T13:53:43;22.20;99.90
25951;DHT22;13748;52.240;6.002;2022-07-21T13:56:11;22.20;99.90
25951;DHT22;13748;52.240;6.002;2022-07-21T13:58:39;22.20;99.90
25951;DHT22;13748;52.240;6.002;2022-07-21T14:01:08;22.30;99.90
25951;DHT22;13748;52.240;6.002;2022-07-21T14:03:36;22.30;99.90
25951;DHT22;13748;52.240;6.002;2022-07-21T14:06:04;22.40;99.90
25951;DHT22;13748;52.240;6.002;2022-07-21T14:08:31;22.40;99.90
25951;DHT22;13748;52.240;6.002;2022-07-21T14:10:58;22.50;99.90
25951;DHT22;13748;52.240;6.002;2022-07-21T14:13:25;22.40;99.90
25951;DHT22;13748;52.240;6.002;2022-07-21T14:15:53;22.50;99.90
25951;DHT22;13748;52.240;6.002;2022-07-21T14:18:20;22.60;99.90
25951;DHT22;13748;52.240;6.002;2022-07-21T14:20:47;22.60;99.90
25951;DHT22;13748;52.240;6.002;2022-07-21T14:23:19;22.60;99.90
25951;DHT22;13748;52.240;6.002;2022-07-21T14:25:48;22.70;99.90
25951;DHT22;13748;52.240;6.002;2022-07-21T14:28:17;22.80;99.90
25951;DHT22;13748;52.240;6.002;2022-07-21T14:30:45;23.00;99.90
25951;DHT22;13748;52.240;6.002;2022-07-21T14:33:12;22.80;99.90
25951;DHT22;13748;52.240;6.002;2022-07-21T14:35:39;22.70;99.90
25951;DHT22;13748;52.240;6.002;2022-07-21T14:38:06;22.70;99.90
25951;DHT22;13748;52.240;6.002;2022-07-21T14:40:33;22.70;99.90
25951;DHT22;13748;52.240;6.002;2022-07-21T14:43:00;22.60;99.90
25951;DHT22;13748;52.240;6.002;2022-07-21T14:45:27;22.60;99.90
25951;DHT22;13748;52.240;6.002;2022-07-21T14:47:56;22.60;99.90
25951;DHT22;13748;52.240;6.002;2022-07-21T14:50:26;22.50;99.90
25951;DHT22;13748;52.240;6.002;2022-07-21T14:52:55;22.40;99.90
25951;DHT22;13748;52.240;6.002;2022-07-21T14:55:23;22.40;99.90
25951;DHT22;13748;52.240;6.002;2022-07-21T14:57:52;22.30;99.90
25951;DHT22;13748;52.240;6.002;2022-07-21T15:00:20;22.20;99.90
25951;DHT22;13748;52.240;6.002;2022-07-21T15:02:49;22.30;99.90
25951;DHT22;13748;52.240;6.002;2022-07-21T15:05:17;22.20;99.90
25951;DHT22;13748;52.240;6.002;2022-07-21T15:07:44;22.30;99.90
25951;DHT22;13748;52.240;6.002;2022-07-21T15:10:11;22.20;99.90
25951;DHT22;13748;52.240;6.002;2022-07-21T15:12:38;22.30;99.90
25951;DHT22;13748;52.240;6.002;2022-07-21T15:15:06;22.20;99.90
25951;DHT22;13748;52.240;6.002;2022-07-21T15:17:36;22.30;99.90
25951;DHT22;13748;52.240;6.002;2022-07-21T15:20:05;22.30;99.90
25951;DHT22;13748;52.240;6.002;2022-07-21T15:22:39;22.40;99.90
25951;DHT22;13748;52.240;6.002;2022-07-21T15:25:08;22.40;99.90
25951;DHT22;13748;52.240;6.002;2022-07-21T15:27:40;22.40;99.90
25951;DHT22;13748;52.240;6.002;2022-07-21T15:30:10;22.30;99.90
25951;DHT22;13748;52.240;6.002;2022-07-21T15:32:38;22.30;99.90
25951;DHT22;13748;52.240;6.002;2022-07-21T15:35:05;22.20;99.90
25951;DHT22;13748;52.240;6.002;2022-07-21T15:37:33;22.10;99.90
25951;DHT22;13748;52.240;6.002;2022-07-21T15:40:00;22.10;99.90
25951;DHT22;13748;52.240;6.002;2022-07-21T15:42:27;22.00;99.90
25951;DHT22;13748;52.240;6.002;2022-07-21T15:44:55;21.90;99.90
25951;DHT22;13748;52.240;6.002;2022-07-21T15:47:23;21.90;99.90
25951;DHT22;13748;52.240;6.002;2022-07-21T15:49:50;21.80;99.90
25951;DHT22;13748;52.240;6.002;2022-07-21T15:52:19;21.80;99.90
25951;DHT22;13748;52.240;6.002;2022-07-21T15:55:22;21.70;99.90
25951;DHT22;13748;52.240;6.002;2022-07-21T15:57:49;21.60;99.90
25951;DHT22;13748;52.240;6.002;2022-07-21T16:00:19;21.60;99.90
25951;DHT22;13748;52.240;6.002;2022-07-21T16:02:46;21.60;99.90
25951;DHT22;13748;52.240;6.002;2022-07-21T16:05:19;21.50;99.90
25951;DHT22;13748;52.240;6.002;2022-07-21T16:07:47;21.50;99.90
25951;DHT22;13748;52.240;6.002;2022-07-21T16:10:27;21.40;99.90
25951;DHT22;13748;52.240;6.002;2022-07-21T16:12:54;21.30;99.90
25951;DHT22;13748;52.240;6.002;2022-07-21T16:15:21;21.30;99.90
25951;DHT22;13748;52.240;6.002;2022-07-21T16:17:50;21.30;99.90
25951;DHT22;13748;52.240;6.002;2022-07-21T16:20:19;21.30;99.90
25951;DHT22;13748;52.240;6.002;2022-07-21T16:22:48;21.30;99.90
25951;DHT22;13748;52.240;6.002;2022-07-21T16:25:20;21.40;99.90
25951;DHT22;13748;52.240;6.002;2022-07-21T16:27:48;21.40;99.90